Flight Track Log - Related Links

Times and Time Zones

All times are in EDT time to prevent confusion due to time zone crossing. See the CSJ405 flight status page for this flight to view local times or setup timezone preferences in your user account.

Time Position Orientation Groundspeed Altitude Reporting Facility
EDT Latitude Longitude Course Direction KTS MPH feet Rate Location/Type
Fri 05:43:55 PM 42.7486 -73.8142 260° West 96 110 1,100  Level Boston Center
Fri 05:45:02 PM 42.7439 -73.8508 260° West 97 112 2,700 1,359 Climbing Boston Center
Fri 05:46:03 PM 42.7164 -73.8700 207° Southwest 106 122 4,000 1,328 Climbing Boston Center
Fri 05:47:04 PM 42.6914 -73.8892 209° Southwest 108 124 5,400 1,328 Climbing Boston Center
Fri 05:48:05 PM 42.6619 -73.9083 206° Southwest 120 138 6,700 1,241 Climbing Boston Center
Fri 05:49:00 PM 42.6325 -73.9272 205° Southwest 127 146 7,800 730 Climbing Boston Center
Fri 05:50:00 PM 42.5947 -73.9517 205° Southwest 148 170 8,100 157 Climbing Boston Center
Fri 05:50:55 PM 42.5547 -73.9761 204° Southwest 176 203 8,100  Level Boston Center
Fri 05:51:56 PM 42.5147 -74.0089 211° Southwest 177 204 8,100  Level Boston Center
Fri 05:52:57 PM 42.4706 -74.0389 207° Southwest 173 199 8,100  Level Boston Center
Fri 05:54:04 PM 42.4200 -74.0742 207° Southwest 172 198 8,100 -56 Level Boston Center
Fri 05:54:44 PM 42.3925 -74.0875 200° South 174 200 8,000  Descending Boston Center
Fri 05:55:04 PM 42.3758 -74.0983 206° Southwest 172 198 8,100  Climbing Boston Center
Fri 05:55:44 PM 42.3464 -74.1144 202° Southwest 174 200 8,000  Descending Boston Center
Fri 05:56:05 PM 42.3358 -74.1281 224° Southwest 172 198 8,100  Climbing Boston Center
Fri 05:56:44 PM 42.3147 -74.1389 201° Southwest 184 212 8,000 -61 Descending Boston Center
Fri 05:57:44 PM 42.2622 -74.1739 206° Southwest 177 204 8,000  Level Boston Center
Fri 05:58:44 PM 42.2242 -74.1981 205° Southwest 177 204 8,000  Level Boston Center
Fri 05:59:44 PM 42.1758 -74.2303 206° Southwest 177 204 8,000  Level Boston Center
Fri 06:00:44 PM 42.1378 -74.2572 208° Southwest 177 204 8,000  Level Boston Center
Fri 06:01:44 PM 42.0914 -74.2950 211° Southwest 182 209 8,000 50 Level Boston Center
Fri 06:02:44 PM 42.0533 -74.3247 210° Southwest 182 209 8,100 50 Climbing Boston Center
Fri 06:03:44 PM 42.0069 -74.3567 207° Southwest 177 204 8,100  Level Boston Center
Fri 06:04:44 PM 41.9689 -74.3836 208° Southwest 177 204 8,100  Level Boston Center
Fri 06:05:44 PM 41.9225 -74.4211 211° Southwest 177 204 8,100  Level Boston Center
Fri 06:06:44 PM 41.8886 -74.4453 208° Southwest 177 204 8,100  Level Boston Center
Fri 06:07:44 PM 41.8358 -74.4797 206° Southwest 177 204 8,100  Level Boston Center
Fri 06:08:44 PM 41.8000 -74.5092 211° Southwest 177 204 8,100  Level Boston Center
Fri 06:09:44 PM 41.7494 -74.5381 203° Southwest 177 204 8,100  Level Boston Center
Fri 06:10:44 PM 41.7075 -74.5481 190° South 172 198 8,100 -100 Level Boston Center
Fri 06:11:44 PM 41.6553 -74.5544 185° South 172 198 7,900 -300 Descending Boston Center
Fri 06:12:44 PM 41.6092 -74.5642 189° South 184 212 7,500 -400 Descending Boston Center
Fri 06:13:44 PM 41.5528 -74.5706 185° South 184 212 7,100 -450 Descending Boston Center
Fri 06:14:44 PM 41.5047 -74.5800 188° South 184 212 6,600 -388 Descending Boston Center
Fri 06:16:34 PM 41.4167 -74.6000 190° South 176 203 6,000 -212 Descending New York TRACON
Fri 06:17:34 PM 41.3667 -74.6167 194° South 174 200 6,000  Level New York TRACON
Fri 06:18:40 PM 41.3167 -74.6167 180° South 174 200 6,000 -333 Level New York TRACON
Fri 06:19:40 PM 41.2667 -74.6000 166° South 186 214 5,300 -700 Descending New York TRACON
Fri 06:20:40 PM 41.2333 -74.5667 143° Southeast 183 211 4,600 -650 Descending New York TRACON
Fri 06:21:40 PM 41.1833 -74.5333 153° Southeast 178 205 4,000 -250 Descending New York TRACON
Fri 06:22:40 PM 41.1500 -74.5000 143° Southeast 159 183 4,100 50 Climbing New York TRACON
Fri 06:23:40 PM 41.1167 -74.4667 143° Southeast 162 186 4,100  Level New York TRACON
Fri 06:24:40 PM 41.0667 -74.4333 153° Southeast 161 185 4,100 -200 Level New York TRACON
Fri 06:25:40 PM 41.0333 -74.4000 143° Southeast 171 197 3,700 -650 Descending New York TRACON
Fri 06:26:40 PM 40.9833 -74.3667 153° Southeast 171 197 2,800 -950 Descending New York TRACON
Fri 06:27:40 PM 40.9500 -74.3333 143° Southeast 167 192 1,800 -750 Descending New York TRACON
Fri 06:28:40 PM 40.9167 -74.3000 143° Southeast 156 180 1,300 -500 Descending New York TRACON
Fri 06:30:00 PM 40.8752 -74.2814 128° Southeast  Level Estimated
Fri 06:37:00 PM 40.8752 -74.2814 128° Southeast  Level Estimated
Fri 06:38:00 PM 40.8752 -74.2814 128° Southeast  Level Estimated
Fri 06:39:00 PM 40.8752 -74.2814 128° Southeast  Level Estimated
Fri 06:40:00 PM 40.8752 -74.2814 128° Southeast  Level Estimated

Login

Don't have an account? Register now (free) for customized features, flight alerts, and more!